sensor_id;sensor_type;location;lat;lon;timestamp;temperature;humidity
24522;DHT22;12680;57.804;12.190;2023-05-19T00:00:27;7.10;90.90
24522;DHT22;12680;57.804;12.190;2023-05-19T00:03:01;7.00;91.00
24522;DHT22;12680;57.804;12.190;2023-05-19T00:05:29;7.00;91.10
24522;DHT22;12680;57.804;12.190;2023-05-19T00:08:01;7.00;91.10
24522;DHT22;12680;57.804;12.190;2023-05-19T00:10:30;7.00;91.20
24522;DHT22;12680;57.804;12.190;2023-05-19T00:12:59;6.90;91.20
24522;DHT22;12680;57.804;12.190;2023-05-19T00:15:27;6.90;91.60
24522;DHT22;12680;57.804;12.190;2023-05-19T00:18:00;6.90;91.40
24522;DHT22;12680;57.804;12.190;2023-05-19T00:20:28;6.80;91.40
24522;DHT22;12680;57.804;12.190;2023-05-19T00:22:59;6.80;91.50
24522;DHT22;12680;57.804;12.190;2023-05-19T00:25:30;6.70;91.60
24522;DHT22;12680;57.804;12.190;2023-05-19T00:28:05;6.70;91.60
24522;DHT22;12680;57.804;12.190;2023-05-19T00:30:32;6.70;91.70
24522;DHT22;12680;57.804;12.190;2023-05-19T00:33:03;6.70;91.60
24522;DHT22;12680;57.804;12.190;2023-05-19T00:35:37;6.60;91.50
24522;DHT22;12680;57.804;12.190;2023-05-19T00:38:05;6.60;91.40
24522;DHT22;12680;57.804;12.190;2023-05-19T00:40:34;6.50;91.50
24522;DHT22;12680;57.804;12.190;2023-05-19T00:43:02;6.50;91.60
24522;DHT22;12680;57.804;12.190;2023-05-19T00:45:36;6.40;91.50
24522;DHT22;12680;57.804;12.190;2023-05-19T00:48:03;6.40;91.70
24522;DHT22;12680;57.804;12.190;2023-05-19T00:50:33;6.30;91.70
24522;DHT22;12680;57.804;12.190;2023-05-19T00:53:05;6.30;91.90
24522;DHT22;12680;57.804;12.190;2023-05-19T00:55:41;6.30;92.10
24522;DHT22;12680;57.804;12.190;2023-05-19T00:58:18;6.30;92.10
24522;DHT22;12680;57.804;12.190;2023-05-19T01:00:45;6.30;92.20
24522;DHT22;12680;57.804;12.190;2023-05-19T01:03:18;6.30;92.20
24522;DHT22;12680;57.804;12.190;2023-05-19T01:05:50;6.30;92.30
24522;DHT22;12680;57.804;12.190;2023-05-19T01:08:19;6.30;92.30
24522;DHT22;12680;57.804;12.190;2023-05-19T01:10:48;6.20;92.20
24522;DHT22;12680;57.804;12.190;2023-05-19T01:13:16;6.20;92.30
24522;DHT22;12680;57.804;12.190;2023-05-19T01:18:57;6.10;92.20
24522;DHT22;12680;57.804;12.190;2023-05-19T01:32:23;6.00;92.70
24522;DHT22;12680;57.804;12.190;2023-05-19T01:34:56;5.90;92.70
24522;DHT22;12680;57.804;12.190;2023-05-19T01:37:26;5.90;92.80
24522;DHT22;12680;57.804;12.190;2023-05-19T01:39:54;5.90;92.90
24522;DHT22;12680;57.804;12.190;2023-05-19T01:42:26;5.90;93.00
24522;DHT22;12680;57.804;12.190;2023-05-19T01:44:54;5.90;93.00
24522;DHT22;12680;57.804;12.190;2023-05-19T01:47:35;5.90;93.10
24522;DHT22;12680;57.804;12.190;2023-05-19T01:50:05;5.90;93.20
24522;DHT22;12680;57.804;12.190;2023-05-19T01:52:36;5.80;93.10
24522;DHT22;12680;57.804;12.190;2023-05-19T01:55:05;5.80;93.10
24522;DHT22;12680;57.804;12.190;2023-05-19T01:57:46;5.80;93.30
24522;DHT22;12680;57.804;12.190;2023-05-19T02:00:25;5.70;93.20
24522;DHT22;12680;57.804;12.190;2023-05-19T02:08:33;5.60;93.30
24522;DHT22;12680;57.804;12.190;2023-05-19T02:11:14;5.60;93.40
24522;DHT22;12680;57.804;12.190;2023-05-19T02:13:45;5.60;93.30
24522;DHT22;12680;57.804;12.190;2023-05-19T02:16:20;5.60;93.30
24522;DHT22;12680;57.804;12.190;2023-05-19T02:18:50;5.50;93.10
24522;DHT22;12680;57.804;12.190;2023-05-19T02:21:19;5.50;93.30
24522;DHT22;12680;57.804;12.190;2023-05-19T02:23:47;5.50;93.50
24522;DHT22;12680;57.804;12.190;2023-05-19T02:26:19;5.40;93.60
24522;DHT22;12680;57.804;12.190;2023-05-19T02:28:47;5.50;93.60
24522;DHT22;12680;57.804;12.190;2023-05-19T02:31:18;5.50;93.60
24522;DHT22;12680;57.804;12.190;2023-05-19T02:33:48;5.40;93.60
24522;DHT22;12680;57.804;12.190;2023-05-19T02:36:24;5.40;93.50
24522;DHT22;12680;57.804;12.190;2023-05-19T02:38:53;5.40;93.70
24522;DHT22;12680;57.804;12.190;2023-05-19T02:41:34;5.30;93.60
24522;DHT22;12680;57.804;12.190;2023-05-19T02:44:01;5.30;93.90
24522;DHT22;12680;57.804;12.190;2023-05-19T02:46:30;5.30;93.50
24522;DHT22;12680;57.804;12.190;2023-05-19T02:49:01;5.20;93.50
24522;DHT22;12680;57.804;12.190;2023-05-19T02:51:34;5.10;93.40
24522;DHT22;12680;57.804;12.190;2023-05-19T02:54:02;5.10;93.50
24522;DHT22;12680;57.804;12.190;2023-05-19T02:56:34;5.10;93.80
24522;DHT22;12680;57.804;12.190;2023-05-19T02:59:05;5.10;94.00
24522;DHT22;12680;57.804;12.190;2023-05-19T03:01:36;5.10;93.70
24522;DHT22;12680;57.804;12.190;2023-05-19T03:04:08;5.10;93.90
24522;DHT22;12680;57.804;12.190;2023-05-19T03:06:37;5.10;94.00
24522;DHT22;12680;57.804;12.190;2023-05-19T03:09:08;5.20;94.00
24522;DHT22;12680;57.804;12.190;2023-05-19T03:11:37;5.20;94.10
24522;DHT22;12680;57.804;12.190;2023-05-19T03:14:05;5.30;94.10
24522;DHT22;12680;57.804;12.190;2023-05-19T03:16:40;5.30;94.20
24522;DHT22;12680;57.804;12.190;2023-05-19T03:19:12;5.30;94.30
24522;DHT22;12680;57.804;12.190;2023-05-19T03:21:44;5.30;94.30
24522;DHT22;12680;57.804;12.190;2023-05-19T03:24:11;5.30;94.60
24522;DHT22;12680;57.804;12.190;2023-05-19T03:26:43;5.40;94.70
24522;DHT22;12680;57.804;12.190;2023-05-19T03:29:15;5.40;94.50
24522;DHT22;12680;57.804;12.190;2023-05-19T03:31:46;5.40;94.60
24522;DHT22;12680;57.804;12.190;2023-05-19T03:34:17;5.50;94.70
24522;DHT22;12680;57.804;12.190;2023-05-19T03:36:45;5.50;94.80
24522;DHT22;12680;57.804;12.190;2023-05-19T03:39:19;5.60;94.90
24522;DHT22;12680;57.804;12.190;2023-05-19T03:41:51;5.60;94.80
24522;DHT22;12680;57.804;12.190;2023-05-19T03:44:22;5.60;94.60
24522;DHT22;12680;57.804;12.190;2023-05-19T03:46:53;5.50;94.60
24522;DHT22;12680;57.804;12.190;2023-05-19T03:49:20;5.60;94.90
24522;DHT22;12680;57.804;12.190;2023-05-19T03:51:52;5.60;95.10
24522;DHT22;12680;57.804;12.190;2023-05-19T03:54:20;5.70;94.70
24522;DHT22;12680;57.804;12.190;2023-05-19T03:56:48;5.70;94.80
24522;DHT22;12680;57.804;12.190;2023-05-19T03:59:23;5.70;94.70
24522;DHT22;12680;57.804;12.190;2023-05-19T04:01:54;5.80;94.70
24522;DHT22;12680;57.804;12.190;2023-05-19T04:04:22;5.80;94.80
24522;DHT22;12680;57.804;12.190;2023-05-19T04:06:49;5.90;94.90
24522;DHT22;12680;57.804;12.190;2023-05-19T04:09:20;5.90;94.80
24522;DHT22;12680;57.804;12.190;2023-05-19T04:11:49;7.80;95.20
24522;DHT22;12680;57.804;12.190;2023-05-19T04:14:17;6.00;94.70
24522;DHT22;12680;57.804;12.190;2023-05-19T04:16:49;6.10;95.00
24522;DHT22;12680;57.804;12.190;2023-05-19T04:19:16;6.20;95.10
24522;DHT22;12680;57.804;12.190;2023-05-19T04:21:47;6.20;95.10
24522;DHT22;12680;57.804;12.190;2023-05-19T04:24:14;6.30;95.10
24522;DHT22;12680;57.804;12.190;2023-05-19T04:26:41;6.40;95.10
24522;DHT22;12680;57.804;12.190;2023-05-19T04:29:11;6.40;95.10
24522;DHT22;12680;57.804;12.190;2023-05-19T04:31:39;6.50;95.30
24522;DHT22;12680;57.804;12.190;2023-05-19T04:34:11;6.60;95.30
24522;DHT22;12680;57.804;12.190;2023-05-19T04:36:38;6.60;95.30
24522;DHT22;12680;57.804;12.190;2023-05-19T04:39:09;6.70;95.30
24522;DHT22;12680;57.804;12.190;2023-05-19T04:41:38;6.80;95.30
24522;DHT22;12680;57.804;12.190;2023-05-19T04:44:10;6.80;95.20
24522;DHT22;12680;57.804;12.190;2023-05-19T04:46:42;6.90;95.30
24522;DHT22;12680;57.804;12.190;2023-05-19T04:49:10;6.90;95.40
24522;DHT22;12680;57.804;12.190;2023-05-19T04:51:40;7.00;95.30
24522;DHT22;12680;57.804;12.190;2023-05-19T04:54:08;7.10;95.30
24522;DHT22;12680;57.804;12.190;2023-05-19T04:56:35;7.10;95.40
24522;DHT22;12680;57.804;12.190;2023-05-19T04:59:03;7.20;95.50
24522;DHT22;12680;57.804;12.190;2023-05-19T05:01:30;7.30;95.60
24522;DHT22;12680;57.804;12.190;2023-05-19T05:03:59;7.40;95.60
24522;DHT22;12680;57.804;12.190;2023-05-19T05:06:28;7.50;95.70
24522;DHT22;12680;57.804;12.190;2023-05-19T05:09:01;7.50;95.60
24522;DHT22;12680;57.804;12.190;2023-05-19T05:11:30;7.60;95.80
24522;DHT22;12680;57.804;12.190;2023-05-19T05:13:57;7.80;95.80
24522;DHT22;12680;57.804;12.190;2023-05-19T05:16:25;7.90;96.00
24522;DHT22;12680;57.804;12.190;2023-05-19T05:18:52;8.00;95.90
24522;DHT22;12680;57.804;12.190;2023-05-19T05:21:19;8.10;95.80
24522;DHT22;12680;57.804;12.190;2023-05-19T05:23:50;8.20;95.80
24522;DHT22;12680;57.804;12.190;2023-05-19T05:26:19;8.30;95.80
24522;DHT22;12680;57.804;12.190;2023-05-19T05:28:49;8.40;95.80
24522;DHT22;12680;57.804;12.190;2023-05-19T05:31:16;8.50;95.90
24522;DHT22;12680;57.804;12.190;2023-05-19T05:33:43;8.70;96.10
24522;DHT22;12680;57.804;12.190;2023-05-19T05:36:11;8.90;96.10
24522;DHT22;12680;57.804;12.190;2023-05-19T05:38:39;9.00;96.10
24522;DHT22;12680;57.804;12.190;2023-05-19T05:41:09;9.10;95.90
24522;DHT22;12680;57.804;12.190;2023-05-19T05:43:36;9.20;95.90
24522;DHT22;12680;57.804;12.190;2023-05-19T05:46:03;9.30;95.90
24522;DHT22;12680;57.804;12.190;2023-05-19T05:48:31;9.30;95.90
24522;DHT22;12680;57.804;12.190;2023-05-19T05:50:58;9.40;96.00
24522;DHT22;12680;57.804;12.190;2023-05-19T05:53:29;9.50;96.00
24522;DHT22;12680;57.804;12.190;2023-05-19T05:55:58;9.60;96.00
24522;DHT22;12680;57.804;12.190;2023-05-19T05:58:25;9.70;96.10
24522;DHT22;12680;57.804;12.190;2023-05-19T06:00:53;9.90;96.10
24522;DHT22;12680;57.804;12.190;2023-05-19T06:03:24;10.00;96.10
24522;DHT22;12680;57.804;12.190;2023-05-19T06:05:51;10.10;96.10
24522;DHT22;12680;57.804;12.190;2023-05-19T06:08:18;10.20;96.20
24522;DHT22;12680;57.804;12.190;2023-05-19T06:10:45;10.30;96.20
24522;DHT22;12680;57.804;12.190;2023-05-19T06:13:13;10.40;96.20
24522;DHT22;12680;57.804;12.190;2023-05-19T06:15:43;10.50;96.30
24522;DHT22;12680;57.804;12.190;2023-05-19T06:18:10;10.70;96.40
24522;DHT22;12680;57.804;12.190;2023-05-19T06:20:37;10.90;96.50
24522;DHT22;12680;57.804;12.190;2023-05-19T06:23:04;11.10;96.50
24522;DHT22;12680;57.804;12.190;2023-05-19T06:25:32;11.30;96.50
24522;DHT22;12680;57.804;12.190;2023-05-19T06:28:02;11.40;96.40
24522;DHT22;12680;57.804;12.190;2023-05-19T06:30:30;11.50;96.40
24522;DHT22;12680;57.804;12.190;2023-05-19T06:32:58;11.70;96.80
24522;DHT22;12680;57.804;12.190;2023-05-19T06:35:33;11.80;96.40
24522;DHT22;12680;57.804;12.190;2023-05-19T06:38:00;11.90;96.30
24522;DHT22;12680;57.804;12.190;2023-05-19T06:40:30;12.10;96.30
24522;DHT22;12680;57.804;12.190;2023-05-19T06:42:58;12.20;96.30
24522;DHT22;12680;57.804;12.190;2023-05-19T06:45:28;12.40;96.20
24522;DHT22;12680;57.804;12.190;2023-05-19T06:47:57;12.40;95.90
24522;DHT22;12680;57.804;12.190;2023-05-19T06:50:28;12.50;95.80
24522;DHT22;12680;57.804;12.190;2023-05-19T06:52:55;12.60;95.70
24522;DHT22;12680;57.804;12.190;2023-05-19T06:55:24;12.70;95.60
24522;DHT22;12680;57.804;12.190;2023-05-19T06:57:51;12.80;95.40
24522;DHT22;12680;57.804;12.190;2023-05-19T07:00:18;12.90;95.10
24522;DHT22;12680;57.804;12.190;2023-05-19T07:02:57;13.00;94.80
24522;DHT22;12680;57.804;12.190;2023-05-19T07:05:24;13.10;94.60
24522;DHT22;12680;57.804;12.190;2023-05-19T07:07:55;13.20;94.60
24522;DHT22;12680;57.804;12.190;2023-05-19T07:10:22;13.30;94.30
24522;DHT22;12680;57.804;12.190;2023-05-19T07:12:49;13.40;94.40
24522;DHT22;12680;57.804;12.190;2023-05-19T07:15:22;13.60;94.20
24522;DHT22;12680;57.804;12.190;2023-05-19T07:17:53;13.70;93.80
24522;DHT22;12680;57.804;12.190;2023-05-19T07:20:20;13.80;93.80
24522;DHT22;12680;57.804;12.190;2023-05-19T07:22:50;14.00;93.70
24522;DHT22;12680;57.804;12.190;2023-05-19T07:25:18;14.10;93.60
24522;DHT22;12680;57.804;12.190;2023-05-19T07:27:45;14.20;93.40
24522;DHT22;12680;57.804;12.190;2023-05-19T07:30:13;14.30;93.30
24522;DHT22;12680;57.804;12.190;2023-05-19T07:32:40;14.40;93.20
24522;DHT22;12680;57.804;12.190;2023-05-19T07:35:08;14.50;92.90
24522;DHT22;12680;57.804;12.190;2023-05-19T07:37:35;14.60;92.90
24522;DHT22;12680;57.804;12.190;2023-05-19T07:40:02;14.70;92.50
24522;DHT22;12680;57.804;12.190;2023-05-19T07:42:30;14.70;92.30
24522;DHT22;12680;57.804;12.190;2023-05-19T07:44:57;14.80;92.10
24522;DHT22;12680;57.804;12.190;2023-05-19T07:47:25;14.80;92.00
24522;DHT22;12680;57.804;12.190;2023-05-19T07:49:52;14.90;92.00
24522;DHT22;12680;57.804;12.190;2023-05-19T07:52:23;15.00;91.80
24522;DHT22;12680;57.804;12.190;2023-05-19T07:54:51;15.10;91.60
24522;DHT22;12680;57.804;12.190;2023-05-19T07:57:18;15.20;91.00
24522;DHT22;12680;57.804;12.190;2023-05-19T07:59:45;15.20;90.90
24522;DHT22;12680;57.804;12.190;2023-05-19T08:02:14;15.20;90.90
24522;DHT22;12680;57.804;12.190;2023-05-19T08:04:41;15.30;90.60
24522;DHT22;12680;57.804;12.190;2023-05-19T08:07:08;15.30;90.40
24522;DHT22;12680;57.804;12.190;2023-05-19T08:09:35;15.40;90.20
24522;DHT22;12680;57.804;12.190;2023-05-19T08:12:02;15.50;90.10
24522;DHT22;12680;57.804;12.190;2023-05-19T08:14:30;15.50;89.70
24522;DHT22;12680;57.804;12.190;2023-05-19T08:17:03;15.60;89.30
24522;DHT22;12680;57.804;12.190;2023-05-19T08:19:30;15.70;89.20
24522;DHT22;12680;57.804;12.190;2023-05-19T08:21:58;15.80;89.10
24522;DHT22;12680;57.804;12.190;2023-05-19T08:24:27;15.90;88.90
24522;DHT22;12680;57.804;12.190;2023-05-19T08:26:58;16.00;87.80
24522;DHT22;12680;57.804;12.190;2023-05-19T08:29:25;16.00;86.70
24522;DHT22;12680;57.804;12.190;2023-05-19T08:31:54;16.00;85.80
24522;DHT22;12680;57.804;12.190;2023-05-19T08:34:27;16.90;86.20
24522;DHT22;12680;57.804;12.190;2023-05-19T08:36:54;16.00;84.40
24522;DHT22;12680;57.804;12.190;2023-05-19T08:39:23;16.10;84.60
24522;DHT22;12680;57.804;12.190;2023-05-19T08:41:53;16.20;84.30
24522;DHT22;12680;57.804;12.190;2023-05-19T08:44:20;16.30;84.50
24522;DHT22;12680;57.804;12.190;2023-05-19T08:46:54;16.60;84.20
24522;DHT22;12680;57.804;12.190;2023-05-19T08:49:26;16.60;83.20
24522;DHT22;12680;57.804;12.190;2023-05-19T08:52:18;16.70;83.30
24522;DHT22;12680;57.804;12.190;2023-05-19T08:57:59;17.00;83.20
24522;DHT22;12680;57.804;12.190;2023-05-19T09:00:27;17.10;83.60
24522;DHT22;12680;57.804;12.190;2023-05-19T09:02:57;17.20;83.10
24522;DHT22;12680;57.804;12.190;2023-05-19T09:05:44;17.30;82.80
24522;DHT22;12680;57.804;12.190;2023-05-19T09:08:12;17.40;83.10
24522;DHT22;12680;57.804;12.190;2023-05-19T09:10:39;17.50;82.20
24522;DHT22;12680;57.804;12.190;2023-05-19T09:13:06;17.60;82.20
24522;DHT22;12680;57.804;12.190;2023-05-19T09:15:34;17.80;82.60
24522;DHT22;12680;57.804;12.190;2023-05-19T09:18:09;18.00;82.20
24522;DHT22;12680;57.804;12.190;2023-05-19T09:20:40;18.20;82.20
24522;DHT22;12680;57.804;12.190;2023-05-19T09:23:15;18.30;81.20
24522;DHT22;12680;57.804;12.190;2023-05-19T09:25:46;18.40;81.30
24522;DHT22;12680;57.804;12.190;2023-05-19T09:31:18;19.20;80.40
24522;DHT22;12680;57.804;12.190;2023-05-19T09:33:44;18.30;80.70
24522;DHT22;12680;57.804;12.190;2023-05-19T09:36:12;18.50;81.00
24522;DHT22;12680;57.804;12.190;2023-05-19T09:38:39;18.60;80.60
24522;DHT22;12680;57.804;12.190;2023-05-19T09:41:07;18.70;79.40
24522;DHT22;12680;57.804;12.190;2023-05-19T09:43:35;18.80;79.70
24522;DHT22;12680;57.804;12.190;2023-05-19T09:46:07;19.00;80.00
24522;DHT22;12680;57.804;12.190;2023-05-19T09:48:36;19.30;79.60
24522;DHT22;12680;57.804;12.190;2023-05-19T09:51:06;19.30;78.60
24522;DHT22;12680;57.804;12.190;2023-05-19T09:53:36;19.40;78.20
24522;DHT22;12680;57.804;12.190;2023-05-19T09:56:05;19.50;78.60
24522;DHT22;12680;57.804;12.190;2023-05-19T09:58:38;19.60;77.50
24522;DHT22;12680;57.804;12.190;2023-05-19T10:01:08;19.40;76.80
24522;DHT22;12680;57.804;12.190;2023-05-19T10:03:38;19.40;77.50
24522;DHT22;12680;57.804;12.190;2023-05-19T10:06:07;19.50;77.20
24522;DHT22;12680;57.804;12.190;2023-05-19T10:08:36;19.50;76.90
24522;DHT22;12680;57.804;12.190;2023-05-19T10:11:04;19.50;76.50
24522;DHT22;12680;57.804;12.190;2023-05-19T10:13:34;19.40;76.20
24522;DHT22;12680;57.804;12.190;2023-05-19T10:16:07;19.30;76.00
24522;DHT22;12680;57.804;12.190;2023-05-19T10:18:38;19.30;76.30
24522;DHT22;12680;57.804;12.190;2023-05-19T10:21:07;19.40;77.10
24522;DHT22;12680;57.804;12.190;2023-05-19T10:23:35;19.70;76.90
24522;DHT22;12680;57.804;12.190;2023-05-19T10:26:03;20.00;76.30
24522;DHT22;12680;57.804;12.190;2023-05-19T10:28:40;20.20;74.90
24522;DHT22;12680;57.804;12.190;2023-05-19T10:31:12;20.20;74.40
24522;DHT22;12680;57.804;12.190;2023-05-19T10:34:26;20.40;74.50
24522;DHT22;12680;57.804;12.190;2023-05-19T10:36:57;20.40;73.60
24522;DHT22;12680;57.804;12.190;2023-05-19T10:39:30;20.30;73.40
24522;DHT22;12680;57.804;12.190;2023-05-19T10:42:15;20.20;73.50
24522;DHT22;12680;57.804;12.190;2023-05-19T10:45:04;20.10;73.50
24522;DHT22;12680;57.804;12.190;2023-05-19T10:47:35;19.90;74.30
24522;DHT22;12680;57.804;12.190;2023-05-19T10:50:07;20.00;74.50
24522;DHT22;12680;57.804;12.190;2023-05-19T10:52:38;20.10;74.00
24522;DHT22;12680;57.804;12.190;2023-05-19T10:55:11;20.00;73.60
24522;DHT22;12680;57.804;12.190;2023-05-19T10:57:54;19.90;73.20
24522;DHT22;12680;57.804;12.190;2023-05-19T11:00:28;19.90;73.50
24522;DHT22;12680;57.804;12.190;2023-05-19T11:03:13;19.90;73.70
24522;DHT22;12680;57.804;12.190;2023-05-19T11:05:41;19.90;73.50
24522;DHT22;12680;57.804;12.190;2023-05-19T11:08:12;20.00;73.70
24522;DHT22;12680;57.804;12.190;2023-05-19T11:10:43;20.10;73.10
24522;DHT22;12680;57.804;12.190;2023-05-19T11:13:18;20.20;72.70
24522;DHT22;12680;57.804;12.190;2023-05-19T11:15:48;20.20;73.30
24522;DHT22;12680;57.804;12.190;2023-05-19T11:18:16;20.40;72.80
24522;DHT22;12680;57.804;12.190;2023-05-19T11:20:54;20.20;72.10
24522;DHT22;12680;57.804;12.190;2023-05-19T11:23:26;20.00;71.90
24522;DHT22;12680;57.804;12.190;2023-05-19T11:26:01;19.80;72.40
24522;DHT22;12680;57.804;12.190;2023-05-19T11:28:28;19.80;72.50
24522;DHT22;12680;57.804;12.190;2023-05-19T11:30:57;19.90;73.10
24522;DHT22;12680;57.804;12.190;2023-05-19T11:33:25;20.20;72.80
24522;DHT22;12680;57.804;12.190;2023-05-19T11:35:58;20.50;72.50
24522;DHT22;12680;57.804;12.190;2023-05-19T11:38:27;20.70;72.10
24522;DHT22;12680;57.804;12.190;2023-05-19T11:40:56;20.80;70.80
24522;DHT22;12680;57.804;12.190;2023-05-19T11:43:23;20.70;70.40
24522;DHT22;12680;57.804;12.190;2023-05-19T11:45:55;20.60;69.60
24522;DHT22;12680;57.804;12.190;2023-05-19T11:48:23;20.40;70.00
24522;DHT22;12680;57.804;12.190;2023-05-19T11:50:52;20.50;70.50
24522;DHT22;12680;57.804;12.190;2023-05-19T11:53:21;20.60;70.80
24522;DHT22;12680;57.804;12.190;2023-05-19T11:55:52;20.60;71.00
24522;DHT22;12680;57.804;12.190;2023-05-19T11:58:24;20.70;71.00
24522;DHT22;12680;57.804;12.190;2023-05-19T12:00:53;20.60;70.30
24522;DHT22;12680;57.804;12.190;2023-05-19T12:03:23;20.50;70.90
24522;DHT22;12680;57.804;12.190;2023-05-19T12:05:56;20.50;70.60
24522;DHT22;12680;57.804;12.190;2023-05-19T12:08:24;20.30;70.30
24522;DHT22;12680;57.804;12.190;2023-05-19T12:10:54;20.10;70.70
24522;DHT22;12680;57.804;12.190;2023-05-19T12:13:23;20.00;71.10
24522;DHT22;12680;57.804;12.190;2023-05-19T12:15:51;19.90;71.10
24522;DHT22;12680;57.804;12.190;2023-05-19T12:18:19;19.80;70.90
24522;DHT22;12680;57.804;12.190;2023-05-19T12:20:50;19.90;71.90
24522;DHT22;12680;57.804;12.190;2023-05-19T12:23:17;20.30;72.20
24522;DHT22;12680;57.804;12.190;2023-05-19T12:25:45;20.70;71.50
24522;DHT22;12680;57.804;12.190;2023-05-19T12:28:14;21.00;70.90
24522;DHT22;12680;57.804;12.190;2023-05-19T12:30:46;21.30;70.80
24522;DHT22;12680;57.804;12.190;2023-05-19T12:33:15;21.50;69.50
24522;DHT22;12680;57.804;12.190;2023-05-19T12:35:43;21.30;68.50
24522;DHT22;12680;57.804;12.190;2023-05-19T12:38:13;21.20;68.50
24522;DHT22;12680;57.804;12.190;2023-05-19T12:40:42;21.10;67.90
24522;DHT22;12680;57.804;12.190;2023-05-19T12:43:20;21.00;68.10
24522;DHT22;12680;57.804;12.190;2023-05-19T12:45:49;20.90;67.40
24522;DHT22;12680;57.804;12.190;2023-05-19T12:48:21;20.70;67.60
24522;DHT22;12680;57.804;12.190;2023-05-19T12:50:50;20.60;68.00
24522;DHT22;12680;57.804;12.190;2023-05-19T12:53:18;20.40;68.40
24522;DHT22;12680;57.804;12.190;2023-05-19T12:55:51;20.30;68.50
24522;DHT22;12680;57.804;12.190;2023-05-19T12:58:19;20.30;69.10
24522;DHT22;12680;57.804;12.190;2023-05-19T13:00:57;20.40;69.60
24522;DHT22;12680;57.804;12.190;2023-05-19T13:03:25;20.40;69.30
24522;DHT22;12680;57.804;12.190;2023-05-19T13:05:55;20.60;69.70
24522;DHT22;12680;57.804;12.190;2023-05-19T13:08:25;20.80;69.20
24522;DHT22;12680;57.804;12.190;2023-05-19T13:10:53;20.80;68.70
24522;DHT22;12680;57.804;12.190;2023-05-19T13:13:21;20.80;67.80
24522;DHT22;12680;57.804;12.190;2023-05-19T13:15:49;20.70;67.70
24522;DHT22;12680;57.804;12.190;2023-05-19T13:18:18;20.70;67.40
24522;DHT22;12680;57.804;12.190;2023-05-19T13:20:45;20.70;67.50
24522;DHT22;12680;57.804;12.190;2023-05-19T13:23:16;20.60;67.70
24522;DHT22;12680;57.804;12.190;2023-05-19T13:25:44;20.60;68.30
24522;DHT22;12680;57.804;12.190;2023-05-19T13:28:15;20.70;68.20
24522;DHT22;12680;57.804;12.190;2023-05-19T13:30:42;20.70;67.30
24522;DHT22;12680;57.804;12.190;2023-05-19T13:33:11;20.60;67.50
24522;DHT22;12680;57.804;12.190;2023-05-19T13:35:38;20.70;67.50
24522;DHT22;12680;57.804;12.190;2023-05-19T13:38:09;20.70;67.10
24522;DHT22;12680;57.804;12.190;2023-05-19T13:40:37;20.70;66.70
24522;DHT22;12680;57.804;12.190;2023-05-19T13:43:04;20.60;67.00
24522;DHT22;12680;57.804;12.190;2023-05-19T13:45:31;20.80;67.80
24522;DHT22;12680;57.804;12.190;2023-05-19T13:47:59;20.90;66.50
24522;DHT22;12680;57.804;12.190;2023-05-19T13:50:27;20.90;66.50
24522;DHT22;12680;57.804;12.190;2023-05-19T13:52:54;21.00;66.40
24522;DHT22;12680;57.804;12.190;2023-05-19T13:55:21;21.10;66.40
24522;DHT22;12680;57.804;12.190;2023-05-19T13:57:53;21.10;65.90
24522;DHT22;12680;57.804;12.190;2023-05-19T14:00:20;21.10;66.10
24522;DHT22;12680;57.804;12.190;2023-05-19T14:02:48;21.20;65.50
24522;DHT22;12680;57.804;12.190;2023-05-19T14:05:16;21.20;65.40
24522;DHT22;12680;57.804;12.190;2023-05-19T14:07:44;21.20;65.90
24522;DHT22;12680;57.804;12.190;2023-05-19T14:10:15;21.10;65.50
24522;DHT22;12680;57.804;12.190;2023-05-19T14:12:44;21.20;65.50
24522;DHT22;12680;57.804;12.190;2023-05-19T14:15:32;21.20;64.70
24522;DHT22;12680;57.804;12.190;2023-05-19T14:18:04;21.10;65.30
24522;DHT22;12680;57.804;12.190;2023-05-19T14:20:33;21.10;65.30
24522;DHT22;12680;57.804;12.190;2023-05-19T14:23:04;21.10;65.50
24522;DHT22;12680;57.804;12.190;2023-05-19T14:25:32;21.20;65.30
24522;DHT22;12680;57.804;12.190;2023-05-19T14:27:59;21.10;64.50
24522;DHT22;12680;57.804;12.190;2023-05-19T14:30:30;21.00;64.40
24522;DHT22;12680;57.804;12.190;2023-05-19T14:32:58;20.80;64.40
24522;DHT22;12680;57.804;12.190;2023-05-19T14:35:25;20.70;64.20
24522;DHT22;12680;57.804;12.190;2023-05-19T14:37:56;20.70;64.50
24522;DHT22;12680;57.804;12.190;2023-05-19T14:40:24;20.60;64.20
24522;DHT22;12680;57.804;12.190;2023-05-19T14:42:55;20.50;64.60
24522;DHT22;12680;57.804;12.190;2023-05-19T14:45:23;20.40;64.30
24522;DHT22;12680;57.804;12.190;2023-05-19T14:47:53;20.40;65.10
24522;DHT22;12680;57.804;12.190;2023-05-19T14:50:21;20.50;65.50
24522;DHT22;12680;57.804;12.190;2023-05-19T14:52:48;20.60;65.30
24522;DHT22;12680;57.804;12.190;2023-05-19T14:55:15;20.60;64.90
24522;DHT22;12680;57.804;12.190;2023-05-19T14:57:42;20.50;64.40
24522;DHT22;12680;57.804;12.190;2023-05-19T15:00:10;20.40;64.50
24522;DHT22;12680;57.804;12.190;2023-05-19T15:02:37;20.40;64.60
24522;DHT22;12680;57.804;12.190;2023-05-19T15:05:05;20.40;65.10
24522;DHT22;12680;57.804;12.190;2023-05-19T15:07:32;20.50;64.60
24522;DHT22;12680;57.804;12.190;2023-05-19T15:09:59;20.60;64.90
24522;DHT22;12680;57.804;12.190;2023-05-19T15:12:27;20.80;64.50
24522;DHT22;12680;57.804;12.190;2023-05-19T15:14:54;20.60;64.30
24522;DHT22;12680;57.804;12.190;2023-05-19T15:17:21;20.60;64.30
24522;DHT22;12680;57.804;12.190;2023-05-19T15:19:48;20.50;64.50
24522;DHT22;12680;57.804;12.190;2023-05-19T15:22:15;20.60;64.60
24522;DHT22;12680;57.804;12.190;2023-05-19T15:24:42;20.70;64.60
24522;DHT22;12680;57.804;12.190;2023-05-19T15:27:09;20.80;64.30
24522;DHT22;12680;57.804;12.190;2023-05-19T15:29:36;20.80;64.20
24522;DHT22;12680;57.804;12.190;2023-05-19T15:32:03;20.80;63.70
24522;DHT22;12680;57.804;12.190;2023-05-19T15:34:30;20.70;64.00
24522;DHT22;12680;57.804;12.190;2023-05-19T15:36:57;20.70;64.10
24522;DHT22;12680;57.804;12.190;2023-05-19T15:39:24;20.70;64.40
24522;DHT22;12680;57.804;12.190;2023-05-19T15:41:51;20.70;63.80
24522;DHT22;12680;57.804;12.190;2023-05-19T15:44:18;20.60;64.10
24522;DHT22;12680;57.804;12.190;2023-05-19T15:46:45;20.70;64.30
24522;DHT22;12680;57.804;12.190;2023-05-19T15:49:12;20.70;64.20
24522;DHT22;12680;57.804;12.190;2023-05-19T15:51:39;20.80;63.60
24522;DHT22;12680;57.804;12.190;2023-05-19T15:54:06;20.60;63.80
24522;DHT22;12680;57.804;12.190;2023-05-19T15:56:32;20.60;64.40
24522;DHT22;12680;57.804;12.190;2023-05-19T15:58:59;20.60;64.30
24522;DHT22;12680;57.804;12.190;2023-05-19T16:01:27;20.50;64.70
24522;DHT22;12680;57.804;12.190;2023-05-19T16:03:54;20.50;64.70